Time;durP1;ratioP1;P1;durP2;ratioP2;P2;SDS_P1;SDS_P2;PMS_P1;PMS_P2;Temp;Humidity;BMP_temperature;BMP_pressure;BME280_temperature;BME280_humidity;BME280_pressure;Samples;Min_cycle;Max_cycle;Signal;HPM_P1;HPM_P2
2022/02/20 00:04:54;;;;;;;3.20;0.98;;;;;;;3.74;100.00;97559.22;10372431;28;20045;-79
2022/02/20 00:09:58;;;;;;;2.85;1.00;;;;;;;3.64;100.00;97553.91;10380650;28;20077;-78
2022/02/20 00:15:01;;;;;;;4.90;1.00;;;;;;;3.62;100.00;97543.38;10403690;28;20137;-77
2022/02/20 00:20:08;;;;;;;2.10;0.90;;;;;;;3.58;100.00;97534.00;10370947;28;20046;-78
2022/02/20 00:25:12;;;;;;;2.47;0.85;;;;;;;3.58;100.00;97534.00;10391065;28;20045;-78
2022/02/20 00:30:18;;;;;;;1.98;0.90;;;;;;;3.60;100.00;97521.38;10397758;28;20049;-78
2022/02/20 00:35:23;;;;;;;2.63;0.95;;;;;;;3.62;100.00;97523.91;10383624;28;20449;-77
2022/02/20 00:40:27;;;;;;;2.60;1.00;;;;;;;3.64;100.00;97506.78;10376065;28;20125;-78
2022/02/20 00:45:31;;;;;;;2.67;0.80;;;;;;;3.65;100.00;97511.16;10383505;28;20524;-78
2022/02/20 00:50:36;;;;;;;2.10;0.80;;;;;;;3.75;100.00;97483.66;10384823;28;20068;-78
2022/02/20 00:55:39;;;;;;;2.30;0.80;;;;;;;3.79;100.00;97501.06;10375800;28;20081;-79
2022/02/20 01:00:42;;;;;;;1.65;0.68;;;;;;;3.80;100.00;97500.06;10379955;28;20570;-79
2022/02/20 01:05:48;;;;;;;1.98;0.80;;;;;;;3.74;100.00;97476.66;10389299;28;20174;-78
2022/02/20 01:10:51;;;;;;;1.73;0.70;;;;;;;3.68;100.00;97486.91;10378050;28;20895;-78
2022/02/20 01:15:54;;;;;;;1.73;0.70;;;;;;;3.68;100.00;97464.75;10376458;28;20068;-79
2022/02/20 01:20:59;;;;;;;2.38;0.80;;;;;;;3.73;100.00;97467.81;10388522;28;20100;-78
2022/02/20 01:26:02;;;;;;;0.95;0.50;;;;;;;3.81;100.00;97470.63;10375210;28;20128;-80
2022/02/20 01:31:05;;;;;;;0.85;0.52;;;;;;;3.85;100.00;97445.38;10373372;28;20056;-79
2022/02/20 01:36:09;;;;;;;1.13;0.57;;;;;;;3.94;100.00;97446.31;10379938;28;20045;-78
2022/02/20 01:41:13;;;;;;;0.93;0.55;;;;;;;4.07;100.00;97453.16;10371832;28;20138;-79
2022/02/20 01:46:21;;;;;;;1.52;0.50;;;;;;;4.09;100.00;97453.88;10382860;28;20054;-79
2022/02/20 01:51:26;;;;;;;0.90;0.52;;;;;;;4.01;100.00;97460.78;10388819;28;20436;-78
2022/02/20 01:56:30;;;;;;;1.35;0.57;;;;;;;4.10;100.00;97455.56;10380752;28;20073;-77
2022/02/20 02:01:41;;;;;;;1.27;0.50;;;;;;;4.14;100.00;97438.28;10382734;28;20061;-78
2022/02/20 02:07:01;;;;;;;1.10;0.35;;;;;;;4.24;100.00;97432.91;10399047;28;20136;-77
2022/02/20 02:12:22;;;;;;;1.13;0.50;;;;;;;4.35;100.00;97415.91;10367541;28;20514;-77
2022/02/20 02:17:44;;;;;;;2.65;0.50;;;;;;;4.36;100.00;97414.91;10385331;28;20511;-76
2022/02/20 02:23:13;;;;;;;2.40;0.60;;;;;;;4.39;100.00;97387.97;10384847;28;20049;-77
2022/02/20 02:28:36;;;;;;;1.88;0.57;;;;;;;4.37;100.00;97398.75;10379487;28;20057;-77
2022/02/20 02:33:45;;;;;;;2.17;0.75;;;;;;;4.41;100.00;97386.00;10408484;28;20045;-76
2022/02/20 02:38:49;;;;;;;2.17;0.70;;;;;;;4.39;100.00;97390.63;10386570;28;20046;-77
2022/02/20 02:43:56;;;;;;;1.83;0.70;;;;;;;4.42;100.00;97390.31;10387331;28;20520;-77
2022/02/20 02:49:03;;;;;;;2.08;0.77;;;;;;;4.41;100.00;97392.16;10390754;28;20153;-77
2022/02/20 02:54:09;;;;;;;1.48;0.63;;;;;;;4.43;100.00;97384.00;10383412;28;20096;-77
2022/02/20 02:59:16;;;;;;;2.47;0.80;;;;;;;4.45;100.00;97366.88;10394554;28;20120;-76
2022/02/20 03:04:20;;;;;;;1.60;0.60;;;;;;;4.48;100.00;97390.56;10391033;28;20084;-77
2022/02/20 03:09:26;;;;;;;1.67;0.70;;;;;;;4.56;100.00;97375.66;10384428;28;20049;-76
2022/02/20 03:14:30;;;;;;;2.20;0.80;;;;;;;4.66;100.00;97378.25;10381347;28;20038;-77
2022/02/20 03:19:33;;;;;;;1.20;0.70;;;;;;;4.63;100.00;97384.75;10400334;28;20057;-77
2022/02/20 03:24:38;;;;;;;2.67;0.95;;;;;;;4.64;100.00;97397.09;10391685;28;20062;-77
2022/02/20 03:29:41;;;;;;;2.58;0.93;;;;;;;4.74;100.00;97394.38;10396974;28;20129;-78
2022/02/20 03:34:45;;;;;;;4.50;1.20;;;;;;;4.75;100.00;97436.09;10376657;28;20394;-78
2022/02/20 03:39:50;;;;;;;2.50;0.90;;;;;;;4.77;100.00;97436.75;10395968;28;20138;-78
2022/02/20 03:44:53;;;;;;;5.43;1.20;;;;;;;4.80;100.00;97436.47;10391743;28;20052;-78
2022/02/20 03:49:57;;;;;;;3.28;0.82;;;;;;;4.77;100.00;97458.97;10394584;28;20042;-78
2022/02/20 03:55:14;;;;;;;2.92;0.80;;;;;;;4.82;100.00;97463.84;10385928;28;20422;-79
2022/02/20 04:00:23;;;;;;;1.70;0.90;;;;;;;4.81;100.00;97475.50;10382396;28;20506;-78
2022/02/20 04:05:36;;;;;;;4.30;1.20;;;;;;;4.80;100.00;97471.16;10388513;28;20116;-77
2022/02/20 04:10:41;;;;;;;5.18;1.08;;;;;;;4.85;100.00;97492.91;10398993;28;20068;-78
2022/02/20 04:15:50;;;;;;;2.60;1.00;;;;;;;4.94;100.00;97480.47;10394496;28;20050;-79
2022/02/20 04:21:01;;;;;;;3.40;1.00;;;;;;;4.91;100.00;97480.78;10399416;28;20046;-79
2022/02/20 04:26:07;;;;;;;3.30;0.90;;;;;;;5.00;100.00;97492.41;10407525;28;20054;-79
2022/02/20 04:31:10;;;;;;;2.92;0.88;;;;;;;5.13;100.00;97487.53;10407013;28;20100;-78
2022/02/20 04:36:14;;;;;;;2.42;0.70;;;;;;;5.16;100.00;97519.28;10385658;28;20046;-77
2022/02/20 04:41:25;;;;;;;3.05;0.90;;;;;;;5.16;100.00;97521.97;10410838;28;20453;-76
2022/02/20 04:46:33;;;;;;;2.78;1.00;;;;;;;5.20;100.00;97535.84;10403097;28;20057;-78
2022/02/20 04:51:37;;;;;;;2.92;0.90;;;;;;;5.19;100.00;97556.38;10390749;28;20038;-76
2022/02/20 04:56:43;;;;;;;3.70;1.00;;;;;;;5.34;100.00;97590.59;10393896;28;20086;-77
2022/02/20 05:01:50;;;;;;;4.88;1.00;;;;;;;5.39;100.00;97569.63;10390650;28;20062;-77
2022/02/20 05:06:58;;;;;;;3.63;0.90;;;;;;;5.32;100.00;97593.41;10390468;28;20064;-78
2022/02/20 05:12:11;;;;;;;4.20;1.10;;;;;;;5.44;100.00;97580.72;10406162;28;20498;-77
2022/02/20 05:17:16;;;;;;;2.30;1.00;;;;;;;5.38;100.00;97586.63;10384658;28;20056;-77
2022/02/20 05:22:23;;;;;;;4.05;0.95;;;;;;;5.34;100.00;97577.25;10408135;28;20167;-76
2022/02/20 05:27:31;;;;;;;2.95;1.00;;;;;;;5.23;100.00;97613.81;10403699;28;20057;-75
2022/02/20 05:32:34;;;;;;;2.47;0.88;;;;;;;5.34;100.00;97633.34;10382685;28;20056;-76
2022/02/20 05:37:58;;;;;;;3.05;1.02;;;;;;;5.36;100.00;97610.81;10383254;28;20046;-75
2022/02/20 05:43:05;;;;;;;3.22;0.93;;;;;;;5.35;100.00;97608.31;10379648;28;20041;-76
2022/02/20 05:48:09;;;;;;;3.88;1.17;;;;;;;5.36;100.00;97644.69;10385630;28;20577;-75
2022/02/20 05:53:30;;;;;;;3.30;1.00;;;;;;;5.23;100.00;97655.72;10382233;28;20053;-77
2022/02/20 05:58:34;;;;;;;3.83;1.13;;;;;;;5.07;100.00;97653.66;10379043;28;20057;-76
2022/02/20 06:03:38;;;;;;;4.07;1.00;;;;;;;5.15;100.00;97661.78;10395692;28;20069;-75
2022/02/20 06:09:04;;;;;;;3.90;1.10;;;;;;;5.17;100.00;97665.16;10403360;28;20510;-76
2022/02/20 06:14:16;;;;;;;3.47;0.95;;;;;;;5.20;100.00;97683.56;10402024;28;20046;-76
2022/02/20 06:19:45;;;;;;;3.58;1.33;;;;;;;5.19;100.00;97687.22;10384567;28;20680;-76
2022/02/20 06:25:05;;;;;;;4.20;1.27;;;;;;;5.22;100.00;97694.09;10396252;28;20088;-75
2022/02/20 06:30:20;;;;;;;3.78;1.25;;;;;;;5.23;100.00;97696.59;10383766;28;20112;-76
2022/02/20 06:35:24;;;;;;;2.85;1.30;;;;;;;5.22;100.00;97702.97;10384087;28;20048;-76
2022/02/20 06:40:28;;;;;;;4.13;1.10;;;;;;;5.29;100.00;97715.72;10394861;28;20054;-74
2022/02/20 06:45:34;;;;;;;4.55;1.20;;;;;;;5.29;100.00;97753.09;10387672;28;20041;-75
2022/02/20 06:50:43;;;;;;;2.40;0.80;;;;;;;5.41;100.00;97735.94;10402125;28;20048;-76
2022/02/20 06:56:15;;;;;;;2.88;0.95;;;;;;;5.35;100.00;97749.88;10371780;28;20049;-76
2022/02/20 07:01:19;;;;;;;2.58;0.95;;;;;;;5.35;100.00;97763.22;10388545;28;20062;-76
2022/02/20 07:06:22;;;;;;;2.85;0.98;;;;;;;5.42;100.00;97768.81;10384040;28;20064;-77
2022/02/20 07:11:27;;;;;;;3.17;0.88;;;;;;;5.44;100.00;97769.50;10393746;28;20115;-77
2022/02/20 07:16:33;;;;;;;3.15;1.08;;;;;;;5.43;100.00;97770.50;10402414;28;20111;-75
2022/02/20 07:21:36;;;;;;;2.75;0.93;;;;;;;5.45;100.00;97763.19;10416298;28;20117;-76
2022/02/20 07:26:39;;;;;;;3.58;0.80;;;;;;;5.38;100.00;97774.47;10426061;28;20049;-80
2022/02/20 07:31:43;;;;;;;3.10;0.80;;;;;;;5.36;100.00;97764.88;10411649;28;20417;-78
2022/02/20 07:36:46;;;;;;;5.07;1.10;;;;;;;5.37;100.00;97756.75;10382644;28;20046;-79
2022/02/20 07:41:49;;;;;;;4.65;1.17;;;;;;;5.45;100.00;97750.69;10387926;28;20395;-79
2022/02/20 07:46:53;;;;;;;3.58;1.27;;;;;;;5.50;100.00;97761.75;10387267;28;20482;-80
2022/02/20 07:51:57;;;;;;;3.78;1.10;;;;;;;5.69;100.00;97750.16;10398295;28;20108;-79
2022/02/20 07:57:00;;;;;;;3.70;0.90;;;;;;;5.78;100.00;97753.78;10395547;28;20072;-80
2022/02/20 08:02:05;;;;;;;4.70;1.20;;;;;;;5.83;100.00;97772.88;10393891;28;20149;-79
2022/02/20 08:07:08;;;;;;;3.53;1.00;;;;;;;5.90;100.00;97756.28;10404336;28;20113;-78
2022/02/20 08:12:11;;;;;;;4.45;1.30;;;;;;;5.96;100.00;97775.25;10410239;28;20060;-75
2022/02/20 08:17:16;;;;;;;2.28;1.00;;;;;;;6.08;100.00;97761.69;10397941;28;20100;-77
2022/02/20 08:22:19;;;;;;;3.08;0.90;;;;;;;6.18;100.00;97770.50;10391180;28;20669;-77
2022/02/20 08:27:22;;;;;;;3.97;1.08;;;;;;;6.35;100.00;97768.03;10389460;28;20053;-77
2022/02/20 08:32:27;;;;;;;3.90;1.10;;;;;;;6.41;100.00;97776.28;10387978;28;20038;-77
2022/02/20 08:37:30;;;;;;;3.55;1.15;;;;;;;6.48;100.00;97772.00;10396846;28;20044;-77
2022/02/20 08:42:33;;;;;;;3.75;1.08;;;;;;;6.55;100.00;97771.41;10390170;28;20033;-80
2022/02/20 08:47:38;;;;;;;3.00;1.05;;;;;;;6.56;100.00;97770.41;10403746;28;20041;-82
2022/02/20 08:52:42;;;;;;;3.33;1.00;;;;;;;6.63;100.00;97763.47;10403763;28;20651;-77
2022/02/20 08:57:45;;;;;;;2.80;0.93;;;;;;;6.70;100.00;97785.94;10407875;28;20045;-80
2022/02/20 09:02:50;;;;;;;4.47;1.10;;;;;;;6.81;100.00;97765.28;10412367;28;20133;-77
2022/02/20 09:07:53;;;;;;;3.75;1.13;;;;;;;6.91;100.00;97776.75;10419534;28;20049;-78
2022/02/20 09:12:56;;;;;;;3.63;1.15;;;;;;;6.95;100.00;97767.44;10426668;28;20041;-79
2022/02/20 09:18:03;;;;;;;3.83;1.00;;;;;;;6.98;100.00;97785.00;10413357;28;20086;-76
2022/02/20 09:23:06;;;;;;;3.45;1.02;;;;;;;7.04;100.00;97757.63;10403753;28;20034;-81
2022/02/20 09:28:09;;;;;;;3.67;1.20;;;;;;;7.11;100.00;97742.59;10390604;28;20078;-80
2022/02/20 09:33:15;;;;;;;2.42;1.02;;;;;;;7.14;100.00;97736.94;10371545;28;20041;-79
2022/02/20 09:38:20;;;;;;;3.40;1.17;;;;;;;7.18;100.00;97730.25;10383116;28;20068;-77
2022/02/20 09:43:23;;;;;;;3.15;1.00;;;;;;;7.15;100.00;97738.63;10378729;28;20141;-80
2022/02/20 09:48:59;;;;;;;4.53;1.40;;;;;;;7.18;100.00;97722.22;10380856;28;20107;-78
2022/02/20 09:54:03;;;;;;;2.97;1.10;;;;;;;7.21;100.00;97711.19;10389081;28;20045;-77
2022/02/20 09:59:07;;;;;;;4.95;1.20;;;;;;;7.13;100.00;97723.69;10396483;28;20053;-78
2022/02/20 10:04:13;;;;;;;3.22;1.00;;;;;;;7.07;100.00;97706.41;10421997;28;20079;-76
2022/02/20 10:09:21;;;;;;;3.33;1.10;;;;;;;7.05;100.00;97714.63;10403942;28;20073;-78
2022/02/20 10:14:24;;;;;;;2.53;1.05;;;;;;;7.02;100.00;97692.66;10407406;28;20034;-79
2022/02/20 10:19:30;;;;;;;1.98;0.80;;;;;;;6.94;100.00;97702.31;10397436;28;20100;-79
2022/02/20 10:25:05;;;;;;;1.92;0.80;;;;;;;6.89;100.00;97690.38;10393183;28;20038;-77
2022/02/20 10:30:43;;;;;;;5.13;0.90;;;;;;;6.86;100.00;97655.91;10402651;28;20060;-78
2022/02/20 10:35:50;;;;;;;2.78;0.68;;;;;;;6.86;100.00;97659.41;10396781;28;20144;-79
2022/02/20 10:40:56;;;;;;;1.10;0.50;;;;;;;6.91;100.00;97634.84;10400910;28;20050;-78
2022/02/20 10:46:07;;;;;;;1.63;0.80;;;;;;;6.92;100.00;97626.66;10403069;28;20080;-79
2022/02/20 10:51:15;;;;;;;1.73;0.80;;;;;;;6.92;100.00;97617.78;10401230;28;20110;-78
2022/02/20 10:56:18;;;;;;;2.55;0.70;;;;;;;6.95;100.00;97606.75;10407525;28;20041;-78
2022/02/20 11:01:24;;;;;;;1.45;0.50;;;;;;;6.96;100.00;97603.09;10417391;28;20425;-75
2022/02/20 11:06:29;;;;;;;1.35;0.50;;;;;;;6.91;100.00;97586.66;10417807;28;20046;-79
2022/02/20 11:11:39;;;;;;;0.68;0.50;;;;;;;6.82;100.00;97585.75;10418030;28;20130;-76
2022/02/20 11:16:46;;;;;;;1.30;0.55;;;;;;;6.78;100.00;97571.84;10414271;28;20069;-77
2022/02/20 11:21:55;;;;;;;0.85;0.40;;;;;;;6.73;100.00;97550.09;10398812;28;20053;-80
2022/02/20 11:27:00;;;;;;;1.65;0.40;;;;;;;6.69;100.00;97559.41;10394751;28;20546;-79
2022/02/20 11:32:06;;;;;;;0.30;0.30;;;;;;;6.61;100.00;97565.56;10396768;28;20064;-78
2022/02/20 11:37:12;;;;;;;0.95;0.30;;;;;;;6.64;100.00;97521.59;10400886;28;20053;-80
2022/02/20 11:42:17;;;;;;;0.70;0.35;;;;;;;6.64;100.00;97529.63;10393015;28;20110;-79
2022/02/20 11:47:40;;;;;;;0.30;0.30;;;;;;;6.72;100.00;97521.63;10400538;28;20129;-79
2022/02/20 11:52:49;;;;;;;0.25;0.25;;;;;;;6.82;100.00;97509.97;10398910;28;20360;-80
2022/02/20 11:58:23;;;;;;;0.10;0.10;;;;;;;6.87;100.00;97507.66;10396825;28;20140;-78
2022/02/20 12:03:27;;;;;;;0.20;0.20;;;;;;;6.97;100.00;97503.00;10397263;28;20498;-81
2022/02/20 12:08:37;;;;;;;0.20;0.13;;;;;;;7.02;100.00;97495.31;10406197;28;20061;-80
2022/02/20 12:13:50;;;;;;;0.43;0.22;;;;;;;7.11;100.00;97476.63;10396482;28;20093;-78
2022/02/20 12:19:14;;;;;;;0.20;0.10;;;;;;;7.15;100.00;97492.19;10411657;28;20502;-79
2022/02/20 12:24:25;;;;;;;0.30;0.17;;;;;;;7.23;100.00;97491.38;10409787;28;20046;-81
2022/02/20 12:29:38;;;;;;;0.10;0.10;;;;;;;7.24;100.00;97509.13;10418411;28;20049;-79
2022/02/20 12:34:55;;;;;;;0.30;0.17;;;;;;;7.28;100.00;97481.00;10411744;28;20045;-79
2022/02/20 12:40:05;;;;;;;0.30;0.13;;;;;;;7.29;100.00;97495.25;10408883;28;20073;-81
2022/02/20 12:45:14;;;;;;;0.25;0.20;;;;;;;7.27;100.00;97478.50;10395030;28;20092;-79
2022/02/20 12:50:18;;;;;;;0.10;0.10;;;;;;;7.28;100.00;97490.91;10401683;28;20042;-79
2022/02/20 12:55:24;;;;;;;0.20;0.00;;;;;;;7.32;100.00;97458.25;10421073;28;20067;-77
2022/02/20 13:00:30;;;;;;;0.10;0.10;;;;;;;7.37;100.00;97463.13;10419814;28;20457;-78
2022/02/20 13:05:37;;;;;;;0.15;0.15;;;;;;;7.36;100.00;97456.91;10417204;28;20045;-78
2022/02/20 13:10:45;;;;;;;0.28;0.20;;;;;;;7.33;100.00;97459.94;10420292;28;20149;-78
2022/02/20 13:15:53;;;;;;;0.30;0.28;;;;;;;7.36;100.00;97454.22;10387181;28;20037;-77
2022/02/20 13:20:59;;;;;;;0.13;0.13;;;;;;;7.48;100.00;97436.00;10396446;28;20045;-76
2022/02/20 13:26:07;;;;;;;0.10;0.10;;;;;;;7.60;100.00;97452.56;10398449;28;20049;-77
2022/02/20 13:31:13;;;;;;;0.20;0.10;;;;;;;7.65;100.00;97444.88;10387254;28;20132;-76
2022/02/20 13:36:18;;;;;;;0.20;0.10;;;;;;;7.70;100.00;97450.56;10402187;28;20045;-79
2022/02/20 13:41:24;;;;;;;0.10;0.10;;;;;;;7.83;100.00;97441.19;10421489;28;20045;-79
2022/02/20 13:46:37;;;;;;;0.85;0.10;;;;;;;7.93;100.00;97420.44;10396604;28;20057;-78
2022/02/20 13:51:41;;;;;;;0.40;0.20;;;;;;;7.94;100.00;97391.75;10392534;28;20140;-79
2022/02/20 13:56:50;;;;;;;0.20;0.20;;;;;;;7.96;100.00;97389.75;10400993;28;20132;-78
2022/02/20 14:01:58;;;;;;;0.13;0.13;;;;;;;7.99;100.00;97409.00;10399312;28;20110;-78
2022/02/20 14:07:06;;;;;;;0.10;0.10;;;;;;;8.07;100.00;97399.25;10390676;28;20045;-79
2022/02/20 14:12:16;;;;;;;0.60;0.10;;;;;;;8.00;100.00;97393.75;10400828;28;20101;-77
2022/02/20 14:17:21;;;;;;;0.10;0.10;;;;;;;7.92;100.00;97391.94;10404709;28;20050;-81
2022/02/20 14:22:25;;;;;;;0.10;0.10;;;;;;;7.86;100.00;97406.00;10383992;28;20076;-79
2022/02/20 14:27:37;;;;;;;0.22;0.10;;;;;;;7.84;100.00;97390.09;10392681;28;20085;-80
2022/02/20 14:32:40;;;;;;;0.20;0.10;;;;;;;7.85;100.00;97404.31;10394968;28;20136;-80
2022/02/20 14:37:46;;;;;;;0.25;0.10;;;;;;;7.86;100.00;97371.13;10396416;28;20038;-77
2022/02/20 14:42:51;;;;;;;0.00;0.00;;;;;;;7.90;100.00;97358.22;10389064;28;20041;-79
2022/02/20 14:47:56;;;;;;;0.40;0.10;;;;;;;7.90;100.00;97369.81;10410631;28;20371;-79
2022/02/20 14:53:00;;;;;;;0.32;0.32;;;;;;;7.93;100.00;97344.47;10407323;28;20179;-78
2022/02/20 14:58:05;;;;;;;0.15;0.15;;;;;;;7.93;100.00;97339.97;10426132;28;20057;-78
2022/02/20 15:03:09;;;;;;;0.03;0.03;;;;;;;7.90;100.00;97334.09;10405633;28;20128;-77
2022/02/20 15:08:12;;;;;;;0.10;0.10;;;;;;;7.94;100.00;97311.28;10402254;28;20056;-77
2022/02/20 15:13:16;;;;;;;0.22;0.10;;;;;;;7.94;100.00;97328.22;10404928;28;20054;-77
2022/02/20 15:18:19;;;;;;;0.10;0.10;;;;;;;7.99;100.00;97304.41;10409746;28;20117;-78
2022/02/20 15:23:24;;;;;;;0.15;0.15;;;;;;;8.00;100.00;97324.84;10411144;28;20050;-79
2022/02/20 15:28:28;;;;;;;0.15;0.15;;;;;;;7.95;100.00;97321.84;10414722;28;20038;-78
2022/02/20 15:33:31;;;;;;;0.20;0.20;;;;;;;7.99;100.00;97304.41;10411025;28;20053;-79
2022/02/20 15:38:35;;;;;;;0.10;0.10;;;;;;;7.99;100.00;97299.03;10420896;28;20041;-77
2022/02/20 15:43:39;;;;;;;0.95;0.30;;;;;;;7.98;100.00;97289.31;10426735;28;20037;-78
2022/02/20 15:48:47;;;;;;;0.13;0.13;;;;;;;7.96;100.00;97269.06;10433326;28;20105;-77
2022/02/20 15:53:50;;;;;;;0.10;0.10;;;;;;;7.98;100.00;97261.69;10423055;28;20052;-78
2022/02/20 15:58:54;;;;;;;0.17;0.10;;;;;;;7.95;100.00;97252.13;10417410;28;20053;-78
2022/02/20 16:03:57;;;;;;;0.10;0.10;;;;;;;7.94;100.00;97246.94;10419508;28;20488;-78
2022/02/20 16:09:01;;;;;;;0.20;0.20;;;;;;;7.95;100.00;97243.25;10408260;28;20130;-77
2022/02/20 16:14:05;;;;;;;0.30;0.10;;;;;;;7.93;100.00;97235.38;10391688;28;20086;-77
2022/02/20 16:19:08;;;;;;;0.50;0.20;;;;;;;7.90;100.00;97224.16;10399295;28;20038;-78
2022/02/20 16:24:13;;;;;;;0.90;0.30;;;;;;;7.86;100.00;97220.97;10408089;28;20061;-78
2022/02/20 16:29:17;;;;;;;0.20;0.20;;;;;;;7.83;100.00;97232.03;10406352;28;20073;-77
2022/02/20 16:34:21;;;;;;;0.13;0.10;;;;;;;7.86;100.00;97203.06;10395841;28;20052;-78
2022/02/20 16:39:24;;;;;;;0.57;0.20;;;;;;;7.77;100.00;97185.31;10388580;28;20049;-76
2022/02/20 16:44:28;;;;;;;0.30;0.30;;;;;;;7.78;100.00;97194.22;10381795;28;20410;-75
2022/02/20 16:49:32;;;;;;;0.80;0.40;;;;;;;7.76;100.00;97196.22;10395608;28;20512;-75
2022/02/20 16:54:36;;;;;;;0.82;0.50;;;;;;;7.80;100.00;97176.13;10396306;28;20056;-75
2022/02/20 16:59:40;;;;;;;0.40;0.40;;;;;;;7.79;100.00;97174.44;10384815;28;20136;-75
2022/02/20 17:04:43;;;;;;;1.02;0.38;;;;;;;7.82;100.00;97155.34;10389585;28;20055;-79
2022/02/20 17:09:46;;;;;;;0.65;0.38;;;;;;;7.84;100.00;97156.81;10410950;28;20136;-76
2022/02/20 17:14:51;;;;;;;0.50;0.30;;;;;;;7.81;100.00;97167.88;10376252;28;20066;-76
2022/02/20 17:19:55;;;;;;;0.32;0.32;;;;;;;7.85;100.00;97158.50;10383907;28;20049;-76
2022/02/20 17:24:58;;;;;;;0.50;0.40;;;;;;;7.89;100.00;97132.16;10397453;28;20102;-78
2022/02/20 17:30:06;;;;;;;0.60;0.50;;;;;;;7.86;100.00;97116.41;10391283;28;20050;-77
2022/02/20 17:35:09;;;;;;;1.20;0.68;;;;;;;7.94;100.00;97145.84;10427007;28;20053;-77
2022/02/20 17:40:12;;;;;;;0.88;0.40;;;;;;;7.98;100.00;97120.38;10401123;22;20054;-68
2022/02/20 17:45:19;;;;;;;0.55;0.30;;;;;;;8.01;100.00;97125.38;10343938;28;20160;-69
2022/02/20 17:50:24;;;;;;;0.82;0.40;;;;;;;8.04;100.00;97112.63;10299964;28;20468;-66
2022/02/20 17:55:29;;;;;;;0.77;0.30;;;;;;;8.09;100.00;97099.50;10307861;28;20038;-70
2022/02/20 18:00:34;;;;;;;0.73;0.30;;;;;;;8.13;100.00;97101.66;10306325;28;20129;-68
2022/02/20 18:05:38;;;;;;;0.85;0.35;;;;;;;8.14;100.00;97129.31;10307518;28;20057;-66
2022/02/20 18:10:41;;;;;;;1.63;0.50;;;;;;;8.18;100.00;97085.88;10323467;28;20134;-66
2022/02/20 18:15:47;;;;;;;1.42;0.40;;;;;;;8.22;100.00;97080.16;10316741;28;20060;-67
2022/02/20 18:20:50;;;;;;;0.52;0.40;;;;;;;8.27;100.00;97065.19;10315522;28;20069;-66
2022/02/20 18:25:54;;;;;;;1.75;0.43;;;;;;;8.26;100.00;97065.34;10321713;28;20391;-68
2022/02/20 18:30:58;;;;;;;1.30;0.40;;;;;;;8.35;100.00;97044.66;10329721;28;20121;-70
2022/02/20 18:36:03;;;;;;;0.85;0.50;;;;;;;8.31;100.00;97047.69;10316596;28;20479;-68
2022/02/20 18:41:08;;;;;;;0.50;0.30;;;;;;;8.32;100.00;97027.06;10293400;28;20101;-64
2022/02/20 18:46:12;;;;;;;1.35;0.50;;;;;;;8.34;100.00;97035.78;10284537;28;20118;-68
2022/02/20 18:51:16;;;;;;;0.68;0.40;;;;;;;8.40;100.00;97010.06;10299236;28;20066;-67
2022/02/20 18:56:20;;;;;;;1.40;0.40;;;;;;;8.40;100.00;97004.72;10290111;28;20047;-67
2022/02/20 19:01:25;;;;;;;0.90;0.40;;;;;;;8.41;100.00;96990.28;10287779;28;20519;-72
2022/02/20 19:06:29;;;;;;;1.13;0.40;;;;;;;8.42;100.00;96997.28;10297573;28;20149;-68
2022/02/20 19:11:34;;;;;;;1.25;0.60;;;;;;;8.41;100.00;96979.53;10299204;28;20471;-69
2022/02/20 19:16:42;;;;;;;0.73;0.40;;;;;;;8.42;100.00;96967.75;10307123;28;20574;-63
2022/02/20 19:21:47;;;;;;;0.52;0.30;;;;;;;8.43;100.00;96945.28;10299908;28;20035;-66
2022/02/20 19:26:55;;;;;;;0.30;0.30;;;;;;;8.45;100.00;96927.16;10306631;28;20046;-64
2022/02/20 19:32:00;;;;;;;0.70;0.40;;;;;;;8.47;100.00;96936.69;10314867;28;20575;-63
2022/02/20 19:37:04;;;;;;;1.08;0.40;;;;;;;8.46;100.00;96931.50;10314497;28;20042;-55
2022/02/20 19:42:08;;;;;;;2.85;0.40;;;;;;;8.44;100.00;96910.22;10311934;28;20112;-59
2022/02/20 19:47:15;;;;;;;0.43;0.30;;;;;;;8.52;100.00;96887.00;10317085;28;20133;-65
2022/02/20 19:52:19;;;;;;;0.52;0.22;;;;;;;8.48;100.00;96886.56;10314246;28;20109;-64
2022/02/20 19:57:30;;;;;;;1.20;0.20;;;;;;;8.46;100.00;96880.50;10314828;28;20057;-66
2022/02/20 20:02:35;;;;;;;0.65;0.20;;;;;;;8.43;100.00;96860.25;10315160;28;20142;-61
2022/02/20 20:07:40;;;;;;;0.20;0.15;;;;;;;8.44;100.00;96853.03;10324511;28;20041;-61
2022/02/20 20:12:43;;;;;;;0.73;0.20;;;;;;;8.41;100.00;96831.94;10331446;28;20114;-63
2022/02/20 20:17:48;;;;;;;0.30;0.22;;;;;;;8.41;100.00;96840.81;10333162;28;20035;-59
2022/02/20 20:22:54;;;;;;;0.47;0.20;;;;;;;8.40;100.00;96824.91;10335190;28;20440;-63
2022/02/20 20:28:00;;;;;;;0.35;0.20;;;;;;;8.45;100.00;96809.06;10350303;28;20524;-62
2022/02/20 20:33:05;;;;;;;0.38;0.10;;;;;;;8.43;100.00;96806.59;10320183;28;20146;-60
2022/02/20 20:38:10;;;;;;;0.35;0.15;;;;;;;8.46;100.00;96775.84;10321787;28;20542;-67
2022/02/20 20:43:15;;;;;;;0.45;0.20;;;;;;;8.49;100.00;96791.63;10319939;28;20128;-63
2022/02/20 20:48:20;;;;;;;0.17;0.10;;;;;;;8.48;100.00;96755.88;10333145;28;20038;-63
2022/02/20 20:53:24;;;;;;;0.10;0.10;;;;;;;8.46;100.00;96784.75;10300825;28;20042;-62
2022/02/20 20:58:29;;;;;;;0.13;0.10;;;;;;;8.51;100.00;96754.69;10302322;28;20047;-61
2022/02/20 21:03:35;;;;;;;0.10;0.10;;;;;;;8.53;100.00;96712.38;10298789;28;20434;-63
2022/02/20 21:08:39;;;;;;;0.35;0.35;;;;;;;8.58;100.00;96718.00;10323828;28;20093;-60
2022/02/20 21:13:56;;;;;;;0.20;0.20;;;;;;;8.59;100.00;96722.34;10302066;28;20047;-64
2022/02/20 21:19:04;;;;;;;0.30;0.20;;;;;;;8.59;100.00;96708.94;10317459;28;20041;-66
2022/02/20 21:24:08;;;;;;;0.60;0.28;;;;;;;8.62;100.00;96713.94;10325523;28;20050;-62
2022/02/20 21:29:12;;;;;;;0.20;0.10;;;;;;;8.65;100.00;96675.13;10329942;28;20078;-61
2022/02/20 21:34:17;;;;;;;0.17;0.15;;;;;;;8.68;100.00;96653.28;10318281;28;20070;-63
2022/02/20 21:39:21;;;;;;;0.20;0.15;;;;;;;8.71;100.00;96641.31;10313664;28;20058;-62
2022/02/20 21:44:24;;;;;;;0.63;0.20;;;;;;;8.75;100.00;96626.50;10317689;28;20069;-60
2022/02/20 21:49:29;;;;;;;0.10;0.10;;;;;;;8.76;100.00;96577.97;10316253;28;20475;-58
2022/02/20 21:54:32;;;;;;;0.17;0.17;;;;;;;8.79;100.00;96591.00;10320804;28;20059;-62
2022/02/20 21:59:35;;;;;;;0.28;0.20;;;;;;;8.84;100.00;96582.34;10325145;28;20060;-62
2022/02/20 22:04:41;;;;;;;0.10;0.10;;;;;;;8.89;100.00;96563.78;10325638;28;20057;-62
2022/02/20 22:09:47;;;;;;;0.32;0.20;;;;;;;8.88;100.00;96556.75;10324598;28;20048;-62
2022/02/20 22:14:51;;;;;;;0.25;0.20;;;;;;;8.83;100.00;96553.84;10324932;28;20129;-62
2022/02/20 22:19:56;;;;;;;0.20;0.10;;;;;;;8.89;100.00;96558.41;10327905;28;20034;-62
2022/02/20 22:25:00;;;;;;;0.25;0.10;;;;;;;8.89;100.00;96579.91;10312305;28;20065;-63
2022/02/20 22:30:04;;;;;;;0.25;0.20;;;;;;;8.89;100.00;96558.41;10326466;28;20061;-63
2022/02/20 22:35:10;;;;;;;0.30;0.10;;;;;;;8.94;100.00;96552.44;10318295;28;20105;-63
2022/02/20 22:40:15;;;;;;;0.68;0.20;;;;;;;8.99;100.00;96522.34;10320976;28;20150;-63
2022/02/20 22:45:19;;;;;;;0.10;0.10;;;;;;;9.02;100.00;96508.50;10328914;28;20122;-63
2022/02/20 22:50:24;;;;;;;0.20;0.13;;;;;;;8.98;100.00;96528.75;10329244;28;20061;-63
2022/02/20 22:55:27;;;;;;;0.65;0.13;;;;;;;8.97;100.00;96484.91;10314223;28;20141;-64
2022/02/20 23:00:37;;;;;;;0.30;0.10;;;;;;;9.08;100.00;96491.59;10313453;28;20081;-63
2022/02/20 23:05:41;;;;;;;0.57;0.20;;;;;;;9.07;100.00;96465.75;10317754;28;20053;-64
2022/02/20 23:10:48;;;;;;;1.67;0.20;;;;;;;9.06;100.00;96448.00;10317850;28;20080;-63
2022/02/20 23:15:53;;;;;;;0.30;0.20;;;;;;;9.02;100.00;96444.03;10309151;28;20573;-63
2022/02/20 23:20:59;;;;;;;0.63;0.30;;;;;;;9.02;100.00;96463.69;10306275;28;20148;-63
2022/02/20 23:26:02;;;;;;;1.60;0.45;;;;;;;9.00;100.00;96438.03;10315352;28;20070;-65
2022/02/20 23:31:05;;;;;;;1.10;0.38;;;;;;;8.99;100.00;96390.75;10316512;28;20077;-64
2022/02/20 23:36:11;;;;;;;0.90;0.40;;;;;;;8.97;100.00;96395.47;10315865;28;20038;-64
2022/02/20 23:41:16;;;;;;;0.57;0.38;;;;;;;8.99;100.00;96366.56;10318864;28;20097;-64
2022/02/20 23:46:19;;;;;;;2.17;0.65;;;;;;;9.00;100.00;96347.56;10317463;28;20059;-64